createdAt,value
2023-03-17T00:00:18.480Z,994.97
2023-03-17T00:01:18.591Z,994.97
2023-03-17T00:02:18.670Z,994.97
2023-03-17T00:03:18.792Z,994.89
2023-03-17T00:04:18.815Z,994.96
2023-03-17T00:05:18.888Z,994.98
2023-03-17T00:06:18.935Z,994.97
2023-03-17T00:07:19.032Z,994.94
2023-03-17T00:08:19.096Z,994.95
2023-03-17T00:09:19.180Z,994.93
2023-03-17T00:10:19.254Z,994.99
2023-03-17T00:11:19.346Z,994.93
2023-03-17T00:12:19.471Z,994.97
2023-03-17T00:13:19.537Z,994.97
2023-03-17T00:14:19.670Z,994.99
2023-03-17T00:15:19.709Z,995.00
2023-03-17T00:16:19.946Z,994.94
2023-03-17T00:17:19.916Z,994.96
2023-03-17T00:18:19.972Z,994.93
2023-03-17T00:19:20.071Z,994.94
2023-03-17T00:20:20.103Z,994.92
2023-03-17T00:21:20.206Z,994.89
2023-03-17T00:22:20.309Z,994.88
2023-03-17T00:23:20.374Z,994.88
2023-03-17T00:24:20.452Z,994.83
2023-03-17T00:25:20.526Z,994.85
2023-03-17T00:26:20.624Z,994.81
2023-03-17T00:27:20.711Z,994.88
2023-03-17T00:28:20.769Z,994.86
2023-03-17T00:29:20.838Z,994.85
2023-03-17T00:30:20.912Z,994.86
2023-03-17T00:31:21.170Z,994.90
2023-03-17T00:32:21.122Z,994.95
2023-03-17T00:33:21.163Z,994.90
2023-03-17T00:34:21.229Z,994.94
2023-03-17T00:35:21.298Z,994.93
2023-03-17T00:36:21.359Z,994.91
2023-03-17T00:37:21.441Z,994.99
2023-03-17T00:38:21.489Z,995.01
2023-03-17T00:39:21.555Z,995.03
2023-03-17T00:40:21.622Z,995.06
2023-03-17T00:41:21.714Z,995.02
2023-03-17T00:42:21.812Z,995.12
2023-03-17T00:43:21.958Z,995.19
2023-03-17T00:44:21.989Z,995.26
2023-03-17T00:45:22.087Z,995.32
2023-03-17T00:46:22.199Z,995.32
2023-03-17T00:47:22.258Z,995.41
2023-03-17T00:48:22.331Z,995.40
2023-03-17T00:49:22.429Z,995.47
2023-03-17T00:50:22.490Z,995.39
2023-03-17T00:51:22.576Z,995.39
2023-03-17T00:52:22.688Z,995.42
2023-03-17T00:53:22.769Z,995.39
2023-03-17T00:54:22.860Z,995.36
2023-03-17T00:55:22.963Z,995.37
2023-03-17T00:56:23.032Z,995.35
2023-03-17T00:57:23.151Z,995.30
2023-03-17T00:58:23.171Z,995.22
2023-03-17T00:59:23.263Z,995.19
2023-03-17T01:00:23.343Z,995.15
2023-03-17T01:01:23.491Z,995.20
2023-03-17T01:02:23.552Z,995.15
2023-03-17T01:03:23.564Z,995.16
2023-03-17T01:04:23.654Z,995.14
2023-03-17T01:05:23.735Z,995.10
2023-03-17T01:06:23.818Z,995.10
2023-03-17T01:07:23.931Z,995.04
2023-03-17T01:08:23.961Z,994.95
2023-03-17T01:09:24.070Z,994.94
2023-03-17T01:10:24.120Z,995.02
2023-03-17T01:11:24.213Z,994.92
2023-03-17T01:12:24.297Z,994.95
2023-03-17T01:13:24.347Z,994.92
2023-03-17T01:14:24.420Z,994.98
2023-03-17T01:15:24.514Z,995.02
2023-03-17T01:16:24.615Z,995.03
2023-03-17T01:17:24.684Z,995.06
2023-03-17T01:18:24.799Z,995.08
2023-03-17T01:19:24.849Z,995.11
2023-03-17T01:20:24.934Z,995.11
2023-03-17T01:21:25.047Z,995.09
2023-03-17T01:22:25.146Z,995.12
2023-03-17T01:23:25.207Z,995.08
2023-03-17T01:24:25.288Z,995.04
2023-03-17T01:25:25.376Z,995.07
2023-03-17T01:26:26.139Z,995.11
2023-03-17T01:27:25.557Z,995.06
2023-03-17T01:28:25.588Z,995.08
2023-03-17T01:29:25.661Z,995.04
2023-03-17T01:30:25.736Z,995.01
2023-03-17T01:31:25.857Z,995.04
2023-03-17T01:32:26.028Z,995.01
2023-03-17T01:33:25.997Z,994.90
2023-03-17T01:34:26.071Z,994.88
2023-03-17T01:35:26.157Z,994.85
2023-03-17T01:36:26.246Z,994.88
2023-03-17T01:37:26.393Z,994.81
2023-03-17T01:38:26.426Z,994.82
2023-03-17T01:39:26.476Z,994.78
2023-03-17T01:40:26.556Z,994.73
2023-03-17T01:41:26.675Z,994.72
2023-03-17T01:42:26.760Z,994.67
2023-03-17T01:43:26.831Z,994.66
2023-03-17T01:44:26.894Z,994.67
2023-03-17T01:45:27.002Z,994.67
2023-03-17T01:46:27.076Z,994.63
2023-03-17T01:47:27.188Z,994.63
2023-03-17T01:48:27.230Z,994.65
2023-03-17T01:49:27.304Z,994.72
2023-03-17T01:50:27.582Z,994.70
2023-03-17T01:51:27.471Z,994.68
2023-03-17T01:52:27.559Z,994.64
2023-03-17T01:53:27.622Z,994.65
2023-03-17T01:54:27.708Z,994.67
2023-03-17T01:55:27.790Z,994.61
2023-03-17T01:56:27.869Z,994.62
2023-03-17T01:57:27.964Z,994.65
2023-03-17T01:58:28.028Z,994.59
2023-03-17T01:59:28.114Z,994.58
2023-03-17T02:00:28.612Z,994.53
2023-03-17T02:01:28.330Z,994.49
2023-03-17T02:02:28.340Z,994.49
2023-03-17T02:03:28.435Z,994.45
2023-03-17T02:04:28.546Z,994.42
2023-03-17T02:05:28.599Z,994.42
2023-03-17T02:06:28.654Z,994.43
2023-03-17T02:07:28.755Z,994.41
2023-03-17T02:08:28.819Z,994.36
2023-03-17T02:09:28.904Z,994.34
2023-03-17T02:10:29.372Z,994.40
2023-03-17T02:11:29.058Z,994.36
2023-03-17T02:12:29.135Z,994.34
2023-03-17T02:13:29.191Z,994.35
2023-03-17T02:14:29.271Z,994.36
2023-03-17T02:15:29.383Z,994.34
2023-03-17T02:16:29.446Z,994.34
2023-03-17T02:17:29.546Z,994.35
2023-03-17T02:18:29.605Z,994.35
2023-03-17T02:19:29.707Z,994.42
2023-03-17T02:20:30.085Z,994.40
2023-03-17T02:21:29.876Z,994.40
2023-03-17T02:22:29.953Z,994.44
2023-03-17T02:23:30.047Z,994.40
2023-03-17T02:24:30.125Z,994.43
2023-03-17T02:25:30.212Z,994.34
2023-03-17T02:26:30.292Z,994.34
2023-03-17T02:27:30.409Z,994.34
2023-03-17T02:28:30.450Z,994.33
2023-03-17T02:29:30.564Z,994.28
2023-03-17T02:30:30.990Z,994.29
2023-03-17T02:31:30.736Z,994.30
2023-03-17T02:32:30.938Z,994.30
2023-03-17T02:33:30.909Z,994.32
2023-03-17T02:34:30.989Z,994.32
2023-03-17T02:35:31.190Z,994.27
2023-03-17T02:36:31.195Z,994.26
2023-03-17T02:37:31.296Z,994.24
2023-03-17T02:38:31.346Z,994.26
2023-03-17T02:39:31.426Z,994.30
2023-03-17T02:40:31.930Z,994.34
2023-03-17T02:41:31.596Z,994.31
2023-03-17T02:42:31.700Z,994.37
2023-03-17T02:43:31.749Z,994.38
2023-03-17T02:44:31.832Z,994.40
2023-03-17T02:45:31.893Z,994.31
2023-03-17T02:46:32.016Z,994.26
2023-03-17T02:47:32.070Z,994.18
2023-03-17T02:48:32.140Z,994.18
2023-03-17T02:49:32.220Z,994.15
2023-03-17T02:50:32.367Z,994.14
2023-03-17T02:51:32.393Z,994.23
2023-03-17T02:52:32.518Z,994.27
2023-03-17T02:53:32.554Z,994.26
2023-03-17T02:54:32.631Z,994.27
2023-03-17T02:55:32.693Z,994.23
2023-03-17T02:56:32.809Z,994.27
2023-03-17T02:57:32.898Z,994.24
2023-03-17T02:58:32.962Z,994.25
2023-03-17T02:59:33.052Z,994.26
2023-03-17T03:00:33.163Z,994.29
2023-03-17T03:01:33.238Z,994.30
2023-03-17T03:02:33.406Z,994.33
2023-03-17T03:03:33.349Z,994.33
2023-03-17T03:04:33.432Z,994.31
2023-03-17T03:05:33.520Z,994.33
2023-03-17T03:06:33.574Z,994.34
2023-03-17T03:07:33.676Z,994.33
2023-03-17T03:08:33.758Z,994.32
2023-03-17T03:09:33.844Z,994.35
2023-03-17T03:10:33.935Z,994.35
2023-03-17T03:11:33.982Z,994.34
2023-03-17T03:12:34.101Z,994.42
2023-03-17T03:13:34.149Z,994.41
2023-03-17T03:14:34.243Z,994.44
2023-03-17T03:15:34.438Z,994.48
2023-03-17T03:16:34.407Z,994.50
2023-03-17T03:17:34.492Z,994.44
2023-03-17T03:18:34.573Z,994.40
2023-03-17T03:19:34.622Z,994.33
2023-03-17T03:20:34.713Z,994.35
2023-03-17T03:21:34.765Z,994.34
2023-03-17T03:22:34.935Z,994.44
2023-03-17T03:23:34.917Z,994.47
2023-03-17T03:24:35.002Z,994.41
2023-03-17T03:25:35.059Z,994.41
2023-03-17T03:26:35.136Z,994.47
2023-03-17T03:27:35.205Z,994.43
2023-03-17T03:28:35.295Z,994.48
2023-03-17T03:29:35.363Z,994.51
2023-03-17T03:30:35.440Z,994.45
2023-03-17T03:31:35.536Z,994.43
2023-03-17T03:32:35.679Z,994.41
2023-03-17T03:33:35.682Z,994.42
2023-03-17T03:34:35.774Z,994.45
2023-03-17T03:35:35.838Z,994.46
2023-03-17T03:36:35.909Z,994.44
2023-03-17T03:37:36.020Z,994.49
2023-03-17T03:38:36.105Z,994.49
2023-03-17T03:39:36.204Z,994.47
2023-03-17T03:40:36.236Z,994.42
2023-03-17T03:41:36.311Z,994.34
2023-03-17T03:42:36.435Z,994.28
2023-03-17T03:43:36.498Z,994.27
2023-03-17T03:44:36.575Z,994.21
2023-03-17T03:45:36.638Z,994.30
2023-03-17T03:46:36.807Z,994.37
2023-03-17T03:47:36.797Z,994.40
2023-03-17T03:48:36.877Z,994.40
2023-03-17T03:49:36.938Z,994.41
2023-03-17T03:50:37.012Z,994.44
2023-03-17T03:51:37.083Z,994.40
2023-03-17T03:52:37.186Z,994.41
2023-03-17T03:53:37.248Z,994.47
2023-03-17T03:54:37.345Z,994.46
2023-03-17T03:55:37.400Z,994.47
2023-03-17T03:56:37.489Z,994.44
2023-03-17T03:57:37.573Z,994.48
2023-03-17T03:58:37.650Z,994.42
2023-03-17T03:59:37.719Z,994.43
2023-03-17T04:00:37.804Z,994.38
2023-03-17T04:01:37.865Z,994.39
2023-03-17T04:02:38.058Z,994.35
2023-03-17T04:03:38.022Z,994.34
2023-03-17T04:04:38.157Z,994.31
2023-03-17T04:05:38.207Z,994.31
2023-03-17T04:06:38.304Z,994.34
2023-03-17T04:07:38.379Z,994.32
2023-03-17T04:08:38.475Z,994.33
2023-03-17T04:09:38.534Z,994.41
2023-03-17T04:10:38.629Z,994.33
2023-03-17T04:11:38.717Z,994.37
2023-03-17T04:12:38.849Z,994.35
2023-03-17T04:13:38.874Z,994.33
2023-03-17T04:14:38.956Z,994.32
2023-03-17T04:15:39.033Z,994.32
2023-03-17T04:16:40.988Z,994.39
2023-03-17T04:17:39.236Z,994.37
2023-03-17T04:18:39.377Z,994.35
2023-03-17T04:19:39.415Z,994.38
2023-03-17T04:20:39.437Z,994.41
2023-03-17T04:21:39.497Z,994.39
2023-03-17T04:22:39.645Z,994.41
2023-03-17T04:23:39.676Z,994.36
2023-03-17T04:24:39.769Z,994.29
2023-03-17T04:25:39.841Z,994.28
2023-03-17T04:26:39.959Z,994.26
2023-03-17T04:27:40.058Z,994.30
2023-03-17T04:28:40.116Z,994.31
2023-03-17T04:29:40.187Z,994.31
2023-03-17T04:30:40.284Z,994.27
2023-03-17T04:31:40.421Z,994.24
2023-03-17T04:32:40.522Z,994.29
2023-03-17T04:33:40.540Z,994.27
2023-03-17T04:34:40.616Z,994.30
2023-03-17T04:35:40.720Z,994.29
2023-03-17T04:36:40.794Z,994.37
2023-03-17T04:37:40.872Z,994.46
2023-03-17T04:38:40.951Z,994.49
2023-03-17T04:39:41.017Z,994.49
2023-03-17T04:40:41.108Z,994.47
2023-03-17T04:41:41.173Z,994.48
2023-03-17T04:42:41.316Z,994.41
2023-03-17T04:43:41.359Z,994.41
2023-03-17T04:44:41.463Z,994.36
2023-03-17T04:45:41.579Z,994.34
2023-03-17T04:46:41.626Z,994.32
2023-03-17T04:47:41.707Z,994.31
2023-03-17T04:48:41.778Z,994.27
2023-03-17T04:49:41.867Z,994.26
2023-03-17T04:50:41.947Z,994.20
2023-03-17T04:51:42.037Z,994.22
2023-03-17T04:52:42.155Z,994.24
2023-03-17T04:53:42.206Z,994.26
2023-03-17T04:54:42.311Z,994.26
2023-03-17T04:55:42.371Z,994.23
2023-03-17T04:56:42.451Z,994.27
2023-03-17T04:57:42.547Z,994.29
2023-03-17T04:58:42.608Z,994.22
2023-03-17T04:59:42.674Z,994.17
2023-03-17T05:00:42.826Z,994.16
2023-03-17T05:01:42.834Z,994.14
2023-03-17T05:02:43.012Z,994.16
2023-03-17T05:03:43.012Z,994.16
2023-03-17T05:04:43.119Z,994.17
2023-03-17T05:05:43.165Z,994.18
2023-03-17T05:06:43.267Z,994.20
2023-03-17T05:07:43.357Z,994.18
2023-03-17T05:08:43.417Z,994.22
2023-03-17T05:09:43.478Z,994.15
2023-03-17T05:10:43.558Z,994.18
2023-03-17T05:11:43.626Z,994.13
2023-03-17T05:12:43.724Z,994.22
2023-03-17T05:13:43.769Z,994.19
2023-03-17T05:14:43.846Z,994.22
2023-03-17T05:15:43.941Z,994.22
2023-03-17T05:16:44.088Z,994.25
2023-03-17T05:17:44.131Z,994.23
2023-03-17T05:18:44.210Z,994.28
2023-03-17T05:19:44.291Z,994.25
2023-03-17T05:20:44.375Z,994.24
2023-03-17T05:21:44.448Z,994.27
2023-03-17T05:22:44.550Z,994.26
2023-03-17T05:23:44.596Z,994.27
2023-03-17T05:24:44.692Z,994.29
2023-03-17T05:25:44.732Z,994.31
2023-03-17T05:26:44.804Z,994.31
2023-03-17T05:27:44.873Z,994.29
2023-03-17T05:28:44.951Z,994.27
2023-03-17T05:29:45.012Z,994.30
2023-03-17T05:30:45.159Z,994.22
2023-03-17T05:31:45.214Z,994.19
2023-03-17T05:32:45.312Z,994.20
2023-03-17T05:33:45.348Z,994.23
2023-03-17T05:34:46.446Z,994.19
2023-03-17T05:35:45.570Z,994.17
2023-03-17T05:36:45.604Z,994.18
2023-03-17T05:37:45.679Z,994.18
2023-03-17T05:38:45.776Z,994.19
2023-03-17T05:39:45.842Z,994.20
2023-03-17T05:40:45.978Z,994.18
2023-03-17T05:41:45.985Z,994.16
2023-03-17T05:42:46.088Z,994.18
2023-03-17T05:43:46.146Z,994.18
2023-03-17T05:44:46.238Z,994.14
2023-03-17T05:45:46.372Z,994.09
2023-03-17T05:46:46.415Z,994.08
2023-03-17T05:47:46.500Z,994.02
2023-03-17T05:48:46.578Z,994.00
2023-03-17T05:49:46.665Z,993.98
2023-03-17T05:50:46.751Z,993.95
2023-03-17T05:51:46.823Z,993.96
2023-03-17T05:52:46.951Z,993.93
2023-03-17T05:53:46.984Z,993.94
2023-03-17T05:54:47.082Z,994.05
2023-03-17T05:55:47.131Z,994.00
2023-03-17T05:56:47.233Z,994.04
2023-03-17T05:57:47.338Z,994.02
2023-03-17T05:58:47.415Z,994.02
2023-03-17T05:59:47.481Z,994.02
2023-03-17T06:00:47.609Z,994.01
2023-03-17T06:01:47.670Z,994.04
2023-03-17T06:02:47.766Z,994.05
2023-03-17T06:03:47.843Z,994.02
2023-03-17T06:04:47.910Z,994.04
2023-03-17T06:05:47.987Z,994.03
2023-03-17T06:06:48.070Z,994.06
2023-03-17T06:07:54.955Z,994.11
2023-03-17T06:08:48.262Z,994.13
2023-03-17T06:09:48.330Z,994.13
2023-03-17T06:10:48.438Z,994.11
2023-03-17T06:11:48.503Z,994.11
2023-03-17T06:12:48.618Z,994.09
2023-03-17T06:13:48.692Z,994.11
2023-03-17T06:14:48.787Z,994.07
2023-03-17T06:15:48.921Z,994.11
2023-03-17T06:16:48.956Z,994.17
2023-03-17T06:17:49.063Z,994.20
2023-03-17T06:18:49.158Z,994.20
2023-03-17T06:19:49.586Z,994.17
2023-03-17T06:20:49.293Z,994.14
2023-03-17T06:21:49.343Z,994.13
2023-03-17T06:23:03.480Z,994.15
2023-03-17T06:23:49.530Z,994.09
2023-03-17T06:24:49.590Z,994.15
2023-03-17T06:25:49.676Z,994.04
2023-03-17T06:26:49.767Z,994.08
2023-03-17T06:27:49.843Z,994.06
2023-03-17T06:28:49.912Z,994.05
2023-03-17T06:29:49.971Z,994.04
2023-03-17T06:30:50.119Z,994.03
2023-03-17T06:31:50.144Z,994.06
2023-03-17T06:32:50.375Z,994.06
2023-03-17T06:33:50.281Z,994.03
2023-03-17T06:34:50.367Z,994.00
2023-03-17T06:35:50.486Z,994.02
2023-03-17T06:36:50.542Z,994.06
2023-03-17T06:37:50.611Z,993.98
2023-03-17T06:38:50.671Z,993.99
2023-03-17T06:39:50.749Z,994.01
2023-03-17T06:40:50.826Z,994.00
2023-03-17T06:41:51.220Z,993.99
2023-03-17T06:42:51.014Z,993.99
2023-03-17T06:43:51.072Z,993.99
2023-03-17T06:44:51.176Z,993.98
2023-03-17T06:45:51.253Z,993.96
2023-03-17T06:46:51.532Z,993.96
2023-03-17T06:47:51.501Z,994.00
2023-03-17T06:48:51.543Z,993.99
2023-03-17T06:49:51.592Z,994.08
2023-03-17T06:50:51.686Z,994.05
2023-03-17T06:51:51.749Z,994.03
2023-03-17T06:52:51.858Z,994.06
2023-03-17T06:53:51.935Z,994.01
2023-03-17T06:54:52.017Z,994.00
2023-03-17T06:55:52.100Z,993.99
2023-03-17T06:56:52.170Z,993.95
2023-03-17T06:57:52.248Z,994.01
2023-03-17T06:58:52.310Z,994.01
2023-03-17T06:59:52.396Z,993.99
2023-03-17T07:00:52.449Z,993.97
2023-03-17T07:01:52.625Z,993.96
2023-03-17T07:02:52.672Z,993.95
2023-03-17T07:03:52.696Z,993.99
2023-03-17T07:04:52.812Z,994.03
2023-03-17T07:05:52.882Z,994.07
2023-03-17T07:06:52.959Z,994.07
2023-03-17T07:07:53.112Z,994.09
2023-03-17T07:08:53.156Z,994.09
2023-03-17T07:09:53.256Z,994.08
2023-03-17T07:10:53.316Z,994.03
2023-03-17T07:11:53.400Z,994.03
2023-03-17T07:12:53.486Z,994.02
2023-03-17T07:13:53.552Z,994.04
2023-03-17T07:14:53.644Z,994.00
2023-03-17T07:15:55.357Z,994.03
2023-03-17T07:16:53.821Z,994.01
2023-03-17T07:17:53.908Z,994.08
2023-03-17T07:18:53.949Z,994.02
2023-03-17T07:19:54.025Z,994.04
2023-03-17T07:20:54.096Z,994.04
2023-03-17T07:21:54.173Z,994.03
2023-03-17T07:22:54.259Z,993.97
2023-03-17T07:23:54.324Z,993.97
2023-03-17T07:24:54.406Z,993.91
2023-03-17T07:25:54.495Z,993.86
2023-03-17T07:26:54.559Z,993.90
2023-03-17T07:27:54.655Z,993.91
2023-03-17T07:28:54.700Z,993.90
2023-03-17T07:29:54.781Z,993.99
2023-03-17T07:30:54.852Z,994.00
2023-03-17T07:31:55.000Z,994.03
2023-03-17T07:32:55.238Z,994.02
2023-03-17T07:33:57.301Z,994.04
2023-03-17T07:34:55.173Z,994.00
2023-03-17T07:35:55.272Z,994.00
2023-03-17T07:36:55.333Z,993.98
2023-03-17T07:37:55.448Z,993.97
2023-03-17T07:38:55.552Z,993.93
2023-03-17T07:39:55.593Z,993.92
2023-03-17T07:40:55.668Z,993.96
2023-03-17T07:41:55.767Z,993.91
2023-03-17T07:42:55.862Z,993.98
2023-03-17T07:43:55.960Z,993.94
2023-03-17T07:44:56.022Z,993.98
2023-03-17T07:45:56.159Z,993.98
2023-03-17T07:46:56.203Z,993.99
2023-03-17T07:47:56.314Z,993.99
2023-03-17T07:48:56.331Z,993.96
2023-03-17T07:49:56.400Z,993.96
2023-03-17T07:50:56.494Z,994.03
2023-03-17T07:51:56.569Z,994.01
2023-03-17T07:52:56.670Z,993.97
2023-03-17T07:53:56.744Z,993.90
2023-03-17T07:54:56.813Z,993.92
2023-03-17T07:55:56.944Z,993.85
2023-03-17T07:56:56.995Z,993.86
2023-03-17T07:57:57.204Z,993.81
2023-03-17T07:58:57.186Z,993.83
2023-03-17T07:59:57.214Z,993.87
2023-03-17T08:00:57.279Z,993.90
2023-03-17T08:01:57.452Z,993.86
2023-03-17T08:03:09.387Z,993.86
2023-03-17T08:03:57.562Z,993.79
2023-03-17T08:04:57.577Z,993.87
2023-03-17T08:05:57.691Z,993.82
2023-03-17T08:06:57.921Z,993.85
2023-03-17T08:07:57.876Z,993.82
2023-03-17T08:08:57.907Z,993.85
2023-03-17T08:09:57.997Z,993.89
2023-03-17T08:10:58.089Z,993.87
2023-03-17T08:11:58.168Z,993.86
2023-03-17T08:12:58.246Z,993.87
2023-03-17T08:13:58.350Z,993.85
2023-03-17T08:14:58.392Z,993.83
2023-03-17T08:15:58.457Z,993.85
2023-03-17T08:16:58.615Z,993.89
2023-03-17T08:17:58.923Z,993.90
2023-03-17T08:18:58.676Z,993.91
2023-03-17T08:19:58.783Z,993.83
2023-03-17T08:20:58.859Z,993.90
2023-03-17T08:21:58.960Z,993.89
2023-03-17T08:22:59.135Z,993.92
2023-03-17T08:23:59.143Z,993.89
2023-03-17T08:24:59.245Z,994.00
2023-03-17T08:25:59.307Z,993.92
2023-03-17T08:27:00.850Z,993.95
2023-03-17T08:27:59.514Z,993.92
2023-03-17T08:28:59.544Z,993.88
2023-03-17T08:29:59.626Z,993.91
2023-03-17T08:30:59.722Z,993.94
2023-03-17T08:31:59.789Z,993.96
2023-03-17T08:32:59.964Z,993.96
2023-03-17T08:33:59.935Z,993.91
2023-03-17T08:34:59.988Z,993.90
2023-03-17T08:36:00.147Z,993.94
2023-03-17T08:37:00.147Z,993.84
2023-03-17T08:38:00.229Z,993.95
2023-03-17T08:39:00.293Z,993.99
2023-03-17T08:40:00.377Z,993.90
2023-03-17T08:41:00.463Z,993.93
2023-03-17T08:42:00.540Z,993.92
2023-03-17T08:43:00.660Z,993.97
2023-03-17T08:44:00.695Z,993.94
2023-03-17T08:45:00.789Z,993.93
2023-03-17T08:46:00.921Z,993.80
2023-03-17T08:47:00.954Z,993.84
2023-03-17T08:48:01.061Z,993.84
2023-03-17T08:49:01.121Z,993.85
2023-03-17T08:50:01.417Z,993.80
2023-03-17T08:51:01.297Z,993.78
2023-03-17T08:52:01.395Z,993.82
2023-03-17T08:53:01.513Z,993.78
2023-03-17T08:54:01.539Z,993.82
2023-03-17T08:55:01.637Z,993.72
2023-03-17T08:56:01.688Z,993.73
2023-03-17T08:57:01.973Z,993.71
2023-03-17T08:58:01.896Z,993.74
2023-03-17T08:59:02.001Z,993.74
2023-03-17T09:00:02.054Z,993.70
2023-03-17T09:01:02.175Z,993.73
2023-03-17T09:02:02.203Z,993.75
2023-03-17T09:03:02.371Z,993.75
2023-03-17T09:04:02.376Z,993.69
2023-03-17T09:05:02.486Z,993.83
2023-03-17T09:06:02.566Z,993.80
2023-03-17T09:07:04.244Z,993.79
2023-03-17T09:08:02.849Z,993.76
2023-03-17T09:09:02.813Z,993.84
2023-03-17T09:10:02.889Z,993.84
2023-03-17T09:11:02.960Z,993.84
2023-03-17T09:12:03.054Z,993.82
2023-03-17T09:13:03.176Z,993.85
2023-03-17T09:14:03.229Z,993.83
2023-03-17T09:15:03.365Z,993.84
2023-03-17T09:16:03.403Z,993.91
2023-03-17T09:17:05.859Z,993.92
2023-03-17T09:18:03.565Z,993.93
2023-03-17T09:19:03.642Z,993.94
2023-03-17T09:20:03.717Z,994.03
2023-03-17T09:21:03.824Z,994.05
2023-03-17T09:22:03.917Z,994.01
2023-03-17T09:23:04.015Z,994.02
2023-03-17T09:24:04.053Z,994.05
2023-03-17T09:25:04.126Z,994.11
2023-03-17T09:26:04.207Z,994.03
2023-03-17T09:27:04.321Z,994.04
2023-03-17T09:28:04.409Z,993.95
2023-03-17T09:29:04.799Z,993.97
2023-03-17T09:30:04.560Z,993.94
2023-03-17T09:31:04.679Z,993.91
2023-03-17T09:32:04.739Z,993.89
2023-03-17T09:33:04.949Z,993.80
2023-03-17T09:34:04.908Z,993.85
2023-03-17T09:35:05.048Z,993.82
2023-03-17T09:36:05.145Z,993.90
2023-03-17T09:37:05.176Z,993.82
2023-03-17T09:38:05.261Z,993.81
2023-03-17T09:39:05.339Z,993.88
2023-03-17T09:40:05.415Z,993.91
2023-03-17T09:41:05.507Z,993.87
2023-03-17T09:42:05.581Z,993.82
2023-03-17T09:43:05.689Z,993.81
2023-03-17T09:44:05.734Z,993.78
2023-03-17T09:45:05.836Z,993.77
2023-03-17T09:46:05.931Z,993.77
2023-03-17T09:47:05.994Z,993.72
2023-03-17T09:48:06.074Z,993.74
2023-03-17T09:49:06.157Z,993.76
2023-03-17T09:50:06.225Z,993.81
2023-03-17T09:51:06.330Z,993.82
2023-03-17T09:52:06.399Z,993.85
2023-03-17T09:53:06.513Z,993.82
2023-03-17T09:54:06.563Z,993.84
2023-03-17T09:55:06.672Z,993.84
2023-03-17T09:56:06.815Z,993.90
2023-03-17T09:57:06.849Z,993.95
2023-03-17T09:58:06.959Z,993.96
2023-03-17T09:59:07.009Z,994.01
2023-03-17T10:00:07.085Z,993.94
2023-03-17T10:01:07.184Z,993.99
2023-03-17T10:02:07.302Z,993.90
2023-03-17T10:03:07.351Z,993.99
2023-03-17T10:04:07.394Z,993.95
2023-03-17T10:05:07.564Z,993.98
2023-03-17T10:06:07.558Z,994.02
2023-03-17T10:07:07.684Z,994.01
2023-03-17T10:08:27.037Z,994.07
2023-03-17T10:09:07.819Z,994.08
2023-03-17T10:10:07.891Z,994.07
2023-03-17T10:11:07.998Z,994.03
2023-03-17T10:12:08.062Z,994.00
2023-03-17T10:13:08.178Z,994.03
2023-03-17T10:14:08.290Z,994.02
2023-03-17T10:15:08.374Z,994.06
2023-03-17T10:16:08.503Z,994.03
2023-03-17T10:17:08.540Z,994.07
2023-03-17T10:18:08.592Z,994.02
2023-03-17T10:19:08.728Z,993.96
2023-03-17T10:20:08.761Z,993.96
2023-03-17T10:21:08.888Z,993.92
2023-03-17T10:22:08.960Z,993.90
2023-03-17T10:23:09.016Z,993.89
2023-03-17T10:24:09.115Z,993.91
2023-03-17T10:25:09.180Z,993.92
2023-03-17T10:26:09.266Z,993.96
2023-03-17T10:27:09.338Z,993.85
2023-03-17T10:28:09.419Z,993.83
2023-03-17T10:29:09.531Z,993.87
2023-03-17T10:30:09.569Z,993.93
2023-03-17T10:31:09.685Z,993.90
2023-03-17T10:32:09.737Z,993.92
2023-03-17T10:33:09.902Z,994.00
2023-03-17T10:34:09.945Z,994.00
2023-03-17T10:35:10.010Z,994.05
2023-03-17T10:36:10.165Z,993.99
2023-03-17T10:37:10.179Z,993.95
2023-03-17T10:38:14.343Z,993.93
2023-03-17T10:39:10.382Z,993.88
2023-03-17T10:40:10.416Z,993.89
2023-03-17T10:41:10.534Z,993.83
2023-03-17T10:42:10.611Z,993.89
2023-03-17T10:43:10.678Z,993.82
2023-03-17T10:44:10.808Z,993.82
2023-03-17T10:45:10.830Z,993.78
2023-03-17T10:46:10.914Z,993.82
2023-03-17T10:47:11.138Z,993.71
2023-03-17T10:48:11.079Z,993.64
2023-03-17T10:49:11.213Z,993.69
2023-03-17T10:50:11.257Z,993.58
2023-03-17T10:51:11.382Z,993.58
2023-03-17T10:52:11.439Z,993.57
2023-03-17T10:53:11.548Z,993.60
2023-03-17T10:54:11.639Z,993.59
2023-03-17T10:55:11.716Z,993.61
2023-03-17T10:56:11.805Z,993.63
2023-03-17T10:57:11.905Z,993.62
2023-03-17T10:58:11.971Z,993.62
2023-03-17T10:59:12.117Z,993.65
2023-03-17T11:00:12.103Z,993.61
2023-03-17T11:01:12.379Z,993.59
2023-03-17T11:02:12.259Z,993.62
2023-03-17T11:03:12.386Z,993.60
2023-03-17T11:04:12.554Z,993.53
2023-03-17T11:05:12.526Z,993.53
2023-03-17T11:06:12.603Z,993.50
2023-03-17T11:07:12.693Z,993.44
2023-03-17T11:08:12.771Z,993.41
2023-03-17T11:09:12.899Z,993.42
2023-03-17T11:10:12.953Z,993.41
2023-03-17T11:11:13.021Z,993.43
2023-03-17T11:12:13.111Z,993.44
2023-03-17T11:13:13.202Z,993.48
2023-03-17T11:14:13.288Z,993.44
2023-03-17T11:15:13.363Z,993.49
2023-03-17T11:16:13.482Z,993.46
2023-03-17T11:17:13.549Z,993.46
2023-03-17T11:18:13.671Z,993.47
2023-03-17T11:19:13.773Z,993.42
2023-03-17T11:20:13.805Z,993.38
2023-03-17T11:21:13.893Z,993.36
2023-03-17T11:22:13.959Z,993.35
2023-03-17T11:23:14.037Z,993.36
2023-03-17T11:24:14.170Z,993.37
2023-03-17T11:25:14.217Z,993.35
2023-03-17T11:26:14.310Z,993.36
2023-03-17T11:27:14.388Z,993.32
2023-03-17T11:28:14.473Z,993.38
2023-03-17T11:29:14.566Z,993.32
2023-03-17T11:30:15.002Z,993.32
2023-03-17T11:31:14.750Z,993.37
2023-03-17T11:32:14.810Z,993.36
2023-03-17T11:33:14.886Z,993.33
2023-03-17T11:34:14.995Z,993.30
2023-03-17T11:35:15.036Z,993.31
2023-03-17T11:36:15.140Z,993.27
2023-03-17T11:37:15.220Z,993.24
2023-03-17T11:38:15.320Z,993.21
2023-03-17T11:39:15.417Z,993.24
2023-03-17T11:40:15.656Z,993.21
2023-03-17T11:41:15.547Z,993.18
2023-03-17T11:42:15.661Z,993.21
2023-03-17T11:43:15.728Z,993.19
2023-03-17T11:44:15.849Z,993.19
2023-03-17T11:45:15.908Z,993.27
2023-03-17T11:46:16.105Z,993.24
2023-03-17T11:47:16.086Z,993.24
2023-03-17T11:48:16.154Z,993.24
2023-03-17T11:49:16.238Z,993.17
2023-03-17T11:50:16.402Z,993.22
2023-03-17T11:51:16.379Z,993.25
2023-03-17T11:52:16.473Z,993.26
2023-03-17T11:53:16.551Z,993.29
2023-03-17T11:54:16.661Z,993.24
2023-03-17T11:55:16.696Z,993.19
2023-03-17T11:56:16.799Z,993.17
2023-03-17T11:57:16.870Z,993.18
2023-03-17T11:58:16.970Z,993.18
2023-03-17T11:59:17.088Z,993.22
2023-03-17T12:00:17.151Z,993.22
2023-03-17T12:01:17.218Z,993.19
2023-03-17T12:02:17.324Z,993.25
2023-03-17T12:03:17.419Z,993.19
2023-03-17T12:04:17.521Z,993.15
2023-03-17T12:05:17.543Z,993.22
2023-03-17T12:06:17.644Z,993.22
2023-03-17T12:07:17.723Z,993.22
2023-03-17T12:08:17.857Z,993.25
2023-03-17T12:09:17.920Z,993.22
2023-03-17T12:10:17.995Z,993.18
2023-03-17T12:11:18.061Z,993.20
2023-03-17T12:12:18.172Z,993.21
2023-03-17T12:13:18.239Z,993.23
2023-03-17T12:14:18.323Z,993.23
2023-03-17T12:15:18.364Z,993.19
2023-03-17T12:16:18.496Z,993.27
2023-03-17T12:17:18.544Z,993.28
2023-03-17T12:18:18.633Z,993.28
2023-03-17T12:19:18.725Z,993.25
2023-03-17T12:20:18.800Z,993.27
2023-03-17T12:21:18.860Z,993.19
2023-03-17T12:22:18.965Z,993.25
2023-03-17T12:23:19.034Z,993.22
2023-03-17T12:24:19.169Z,993.19
2023-03-17T12:25:19.232Z,993.13
2023-03-17T12:26:19.329Z,993.14
2023-03-17T12:27:19.406Z,993.09
2023-03-17T12:28:19.504Z,993.06
2023-03-17T12:29:19.605Z,993.04